Terminal Aerodrome Forecast
Issued by NWS

Home | Current Version | Previous Version | Text Only | Print | Product List | Glossary On
Versions: 1 2 3 4 5 6 7 8 9 10 11 12 13 14
000
FTAK31 PANC 282340
TAFAIL
TAF
PAIL 282340Z 2900/2924 25007KT P6SM VCSH SCT018
      TEMPO 2900/2902 BKN018
     FM290300 32005KT P6SM SCT035
     FM291200 VRB03KT P6SM VCFG SCT005
     FM291900 03006KT P6SM SKC=

USA.gov is the U.S. government's official web portal to all federal, state and local government web resources and services.